Terminal Aerodrome Forecast
Issued by NWS

Home | Current Version | Previous Version | Text Only | Print | Product List | Glossary Off
Versions: 1 2 3 4 5 6 7 8 9 10 11 12 13 14 15 16 17 18 19 20 21

000
FTUS43 KBIS 201800 AAB
TAFDIK
TAF AMD
KDIK 201822Z 2018/2118 16006KT P6SM VCSH BKN100
      TEMPO 2018/2022 4SM -TSRA BKN050CB
     FM202300 27009KT P6SM VCSH OVC050
     FM210300 29007KT P6SM SCT080=

USA.gov is the U.S. government's official web portal to all federal, state and local government web resources and services.